createdAt,value
2018-10-11T00:00:20.025Z,26.52
2018-10-11T00:02:48.202Z,27.67
2018-10-11T00:05:16.331Z,27.95
2018-10-11T00:07:44.480Z,26.48
2018-10-11T00:10:12.617Z,28.27
2018-10-11T00:12:40.764Z,27.32
2018-10-11T00:15:08.920Z,28.05
2018-10-11T00:17:37.064Z,28.35
2018-10-11T00:20:05.288Z,27.10
2018-10-11T00:22:33.477Z,27.62
2018-10-11T00:25:01.645Z,28.20
2018-10-11T00:27:29.795Z,29.57
2018-10-11T00:29:57.931Z,29.75
2018-10-11T00:32:26.104Z,27.90
2018-10-11T00:34:54.237Z,28.02
2018-10-11T00:37:22.384Z,27.82
2018-10-11T00:39:50.503Z,28.45
2018-10-11T00:42:18.649Z,28.05
2018-10-11T00:44:46.799Z,28.77
2018-10-11T00:47:14.937Z,28.90
2018-10-11T00:49:43.055Z,26.97
2018-10-11T00:52:11.204Z,31.10
2018-10-11T00:54:39.347Z,28.57
2018-10-11T00:57:07.606Z,28.32
2018-10-11T00:59:35.736Z,30.68
2018-10-11T01:02:03.931Z,28.27
2018-10-11T01:04:32.084Z,29.07
2018-10-11T01:07:00.227Z,29.25
2018-10-11T01:09:28.452Z,29.15
2018-10-11T01:11:56.519Z,29.65
2018-10-11T01:14:24.700Z,29.40
2018-10-11T01:16:52.857Z,29.37
2018-10-11T01:19:21.008Z,31.27
2018-10-11T01:21:49.164Z,29.52
2018-10-11T01:24:17.355Z,28.40
2018-10-11T01:26:45.668Z,29.18
2018-10-11T01:29:13.828Z,28.85
2018-10-11T01:31:42.017Z,30.82
2018-10-11T01:34:10.144Z,29.72
2018-10-11T01:36:38.371Z,30.77
2018-10-11T01:39:07.059Z,29.92
2018-10-11T01:41:35.216Z,30.52
2018-10-11T01:44:03.375Z,29.30
2018-10-11T01:46:31.508Z,29.48
2018-10-11T01:48:59.684Z,29.65
2018-10-11T01:51:27.822Z,28.20
2018-10-11T01:53:55.955Z,29.30
2018-10-11T01:56:24.107Z,29.37
2018-10-11T01:58:52.228Z,29.95
2018-10-11T02:01:20.468Z,29.07
2018-10-11T02:03:48.585Z,30.02
2018-10-11T02:06:16.744Z,29.05
2018-10-11T02:08:44.901Z,29.25
2018-10-11T02:11:13.028Z,28.55
2018-10-11T02:13:41.211Z,29.23
2018-10-11T02:16:09.344Z,30.35
2018-10-11T02:18:37.500Z,27.25
2018-10-11T02:21:05.928Z,29.23
2018-10-11T02:23:34.152Z,28.23
2018-10-11T02:26:02.312Z,28.07
2018-10-11T02:28:30.447Z,29.23
2018-10-11T02:30:58.576Z,29.27
2018-10-11T02:33:26.740Z,28.60
2018-10-11T02:35:55.267Z,28.98
2018-10-11T02:38:23.497Z,27.80
2018-10-11T02:40:51.644Z,29.12
2018-10-11T02:43:19.815Z,29.77
2018-10-11T02:45:48.048Z,28.10
2018-10-11T02:48:16.194Z,28.50
2018-10-11T02:50:44.332Z,27.80
2018-10-11T02:53:12.517Z,30.97
2018-10-11T02:55:40.699Z,28.20
2018-10-11T02:58:14.411Z,29.15
2018-10-11T03:00:42.611Z,28.98
2018-10-11T03:03:12.851Z,30.02
2018-10-11T03:05:42.867Z,29.30
2018-10-11T03:08:13.459Z,29.23
2018-10-11T03:10:41.786Z,29.80
2018-10-11T03:13:11.791Z,30.37
2018-10-11T03:15:40.397Z,30.37
2018-10-11T03:18:08.773Z,32.08
2018-10-11T03:20:36.906Z,31.10
2018-10-11T03:23:05.101Z,30.60
2018-10-11T03:25:33.244Z,29.98
2018-10-11T03:28:01.404Z,30.08
2018-10-11T03:30:29.539Z,29.67
2018-10-11T03:32:57.671Z,30.20
2018-10-11T03:35:26.076Z,30.32
2018-10-11T03:37:54.457Z,30.92
2018-10-11T03:40:22.603Z,30.32
2018-10-11T03:42:50.752Z,30.20
2018-10-11T03:45:18.903Z,30.12
2018-10-11T03:47:47.655Z,29.32
2018-10-11T03:50:15.797Z,32.05
2018-10-11T03:52:43.919Z,32.13
2018-10-11T03:55:12.043Z,31.15
2018-10-11T03:57:40.212Z,31.27
2018-10-11T04:00:08.378Z,31.10
2018-10-11T04:02:36.537Z,30.90
2018-10-11T04:05:04.852Z,37.85
2018-10-11T04:07:33.038Z,42.90
2018-10-11T04:10:01.164Z,31.52
2018-10-11T04:12:29.311Z,31.33
2018-10-11T04:14:57.452Z,32.78
2018-10-11T04:17:25.573Z,33.95
2018-10-11T04:19:53.744Z,31.20
2018-10-11T04:22:21.888Z,31.35
2018-10-11T04:24:50.023Z,31.57
2018-10-11T04:27:18.151Z,30.65
2018-10-11T04:29:46.279Z,31.02
2018-10-11T04:32:14.424Z,30.72
2018-10-11T04:34:42.585Z,31.70
2018-10-11T04:37:10.952Z,31.77
2018-10-11T04:39:39.232Z,31.95
2018-10-11T04:42:07.664Z,33.75
2018-10-11T04:44:36.626Z,32.98
2018-10-11T04:47:05.188Z,32.93
2018-10-11T04:49:33.592Z,32.25
2018-10-11T04:52:01.746Z,31.33
2018-10-11T04:54:29.868Z,33.30
2018-10-11T04:56:58.032Z,33.30
2018-10-11T04:59:26.198Z,33.85
2018-10-11T05:01:54.603Z,34.03
2018-10-11T05:04:22.747Z,31.45
2018-10-11T05:06:50.879Z,33.10
2018-10-11T05:09:19.023Z,34.65
2018-10-11T05:11:47.166Z,34.58
2018-10-11T05:14:15.590Z,34.80
2018-10-11T05:16:43.790Z,34.15
2018-10-11T05:19:11.956Z,32.73
2018-10-11T05:21:40.562Z,34.75
2018-10-11T05:24:08.715Z,34.50
2018-10-11T05:26:36.852Z,34.73
2018-10-11T05:29:04.999Z,36.53
2018-10-11T05:31:33.156Z,35.90
2018-10-11T05:34:01.274Z,36.65
2018-10-11T05:36:29.424Z,34.58
2018-10-11T05:38:57.561Z,33.20
2018-10-11T05:41:25.756Z,34.55
2018-10-11T05:43:53.896Z,34.25
2018-10-11T05:46:23.323Z,36.20
2018-10-11T05:48:51.952Z,34.45
2018-10-11T05:51:20.433Z,35.28
2018-10-11T05:53:48.602Z,32.85
2018-10-11T05:56:17.453Z,39.63
2018-10-11T05:58:45.672Z,33.05
2018-10-11T06:01:13.786Z,35.38
2018-10-11T06:03:42.481Z,33.48
2018-10-11T06:06:10.624Z,33.75
2018-10-11T06:08:38.760Z,33.67
2018-10-11T06:11:07.184Z,36.00
2018-10-11T06:13:35.317Z,33.30
2018-10-11T06:16:03.495Z,34.40
2018-10-11T06:18:31.649Z,35.65
2018-10-11T06:20:59.804Z,35.13
2018-10-11T06:23:27.948Z,34.70
2018-10-11T06:25:56.104Z,33.15
2018-10-11T06:28:24.259Z,33.88
2018-10-11T06:30:52.413Z,33.30
2018-10-11T06:33:20.595Z,32.83
2018-10-11T06:35:48.767Z,31.73
2018-10-11T06:38:16.955Z,32.42
2018-10-11T06:40:45.120Z,33.15
2018-10-11T06:43:13.332Z,33.85
2018-10-11T06:45:42.161Z,31.52
2018-10-11T06:48:10.475Z,32.65
2018-10-11T06:50:39.098Z,32.28
2018-10-11T06:53:07.273Z,32.67
2018-10-11T06:55:35.394Z,29.72
2018-10-11T06:58:03.523Z,31.12
2018-10-11T07:00:31.660Z,29.65
2018-10-11T07:03:00.036Z,26.45
2018-10-11T07:05:28.168Z,24.52
2018-10-11T07:07:56.320Z,23.25
2018-10-11T07:10:24.596Z,21.17
2018-10-11T07:12:52.751Z,21.20
2018-10-11T07:15:20.839Z,20.72
2018-10-11T07:17:49.103Z,20.97
2018-10-11T07:20:17.302Z,20.15
2018-10-11T07:22:45.415Z,19.85
2018-10-11T07:25:13.552Z,19.15
2018-10-11T07:27:41.679Z,19.12
2018-10-11T07:30:09.838Z,19.02
2018-10-11T07:32:38.065Z,21.73
2018-10-11T07:35:06.204Z,19.25
2018-10-11T07:37:34.389Z,19.32
2018-10-11T07:40:02.581Z,19.20
2018-10-11T07:42:30.773Z,19.27
2018-10-11T07:44:58.911Z,20.80
2018-10-11T07:47:27.036Z,21.48
2018-10-11T07:49:55.128Z,20.62
2018-10-11T07:52:23.346Z,19.25
2018-10-11T07:54:51.444Z,20.72
2018-10-11T07:57:19.524Z,19.55
2018-10-11T07:59:47.654Z,18.07
2018-10-11T08:02:15.740Z,17.42
2018-10-11T08:04:43.904Z,16.50
2018-10-11T08:07:12.072Z,16.02
2018-10-11T08:09:40.789Z,16.02
2018-10-11T08:12:08.945Z,21.30
2018-10-11T08:14:37.033Z,17.10
2018-10-11T08:17:06.083Z,17.15
2018-10-11T08:19:34.230Z,15.80
2018-10-11T08:22:02.244Z,17.55
2018-10-11T08:24:30.503Z,17.27
2018-10-11T08:26:58.719Z,16.55
2018-10-11T08:29:26.736Z,16.70
2018-10-11T08:31:54.823Z,16.65
2018-10-11T08:34:22.952Z,16.70
2018-10-11T08:36:51.092Z,16.75
2018-10-11T08:39:19.270Z,16.15
2018-10-11T08:41:47.483Z,15.80
2018-10-11T08:44:15.635Z,17.37
2018-10-11T08:46:43.729Z,16.70
2018-10-11T08:49:12.012Z,17.25
2018-10-11T08:51:40.134Z,15.10
2018-10-11T08:54:13.684Z,15.28
2018-10-11T08:56:41.794Z,15.65
2018-10-11T08:59:09.945Z,14.78
2018-10-11T09:01:38.116Z,15.35
2018-10-11T09:04:06.447Z,16.52
2018-10-11T09:06:34.475Z,14.28
2018-10-11T09:09:02.687Z,15.13
2018-10-11T09:11:30.922Z,16.02
2018-10-11T09:13:59.064Z,14.18
2018-10-11T09:16:27.275Z,13.88
2018-10-11T09:18:55.368Z,13.10
2018-10-11T09:21:23.556Z,13.10
2018-10-11T09:23:51.727Z,12.53
2018-10-11T09:26:19.914Z,13.08
2018-10-11T09:28:48.080Z,16.20
2018-10-11T09:31:16.341Z,12.40
2018-10-11T09:33:44.421Z,12.28
2018-10-11T09:36:12.565Z,12.10
2018-10-11T09:38:40.783Z,13.05
2018-10-11T09:41:08.935Z,12.07
2018-10-11T09:43:37.057Z,11.55
2018-10-11T09:46:05.191Z,12.05
2018-10-11T09:48:33.332Z,11.53
2018-10-11T09:51:01.536Z,12.63
2018-10-11T09:53:29.783Z,11.53
2018-10-11T09:55:57.896Z,12.90
2018-10-11T09:58:26.050Z,13.85
2018-10-11T10:00:59.817Z,14.05
2018-10-11T10:03:27.908Z,13.48
2018-10-11T10:05:56.016Z,14.80
2018-10-11T10:08:24.196Z,14.23
2018-10-11T10:10:52.287Z,13.55
2018-10-11T10:13:20.383Z,13.18
2018-10-11T10:15:48.510Z,13.08
2018-10-11T10:18:16.705Z,12.80
2018-10-11T10:20:44.839Z,12.47
2018-10-11T10:23:13.063Z,12.80
2018-10-11T10:25:41.213Z,13.78
2018-10-11T10:28:09.388Z,14.10
2018-10-11T10:30:42.972Z,12.88
2018-10-11T10:33:11.068Z,11.53
2018-10-11T10:35:39.229Z,12.28
2018-10-11T10:38:07.323Z,11.33
2018-10-11T10:40:35.512Z,13.25
2018-10-11T10:43:03.657Z,11.85
2018-10-11T10:45:31.752Z,11.60
2018-10-11T10:47:59.868Z,11.70
2018-10-11T10:50:28.074Z,13.38
2018-10-11T10:52:56.272Z,11.70
2018-10-11T10:55:24.400Z,13.53
2018-10-11T10:57:53.464Z,12.00
2018-10-11T11:00:21.717Z,11.88
2018-10-11T11:02:49.892Z,12.05
2018-10-11T11:05:18.075Z,10.82
2018-10-11T11:07:46.215Z,14.73
2018-10-11T11:10:14.401Z,10.82
2018-10-11T11:12:42.568Z,12.03
2018-10-11T11:15:10.716Z,11.60
2018-10-11T11:17:38.979Z,9.78
2018-10-11T11:20:07.196Z,10.55
2018-10-11T11:22:35.272Z,9.88
2018-10-11T11:25:03.465Z,10.72
2018-10-11T11:27:31.611Z,10.30
2018-10-11T11:29:59.780Z,9.25
2018-10-11T11:32:28.060Z,11.93
2018-10-11T11:34:56.255Z,11.78
2018-10-11T11:37:25.320Z,8.90
2018-10-11T11:39:53.499Z,9.25
2018-10-11T11:42:21.709Z,9.58
2018-10-11T11:44:49.909Z,9.78
2018-10-11T11:47:17.985Z,8.45
2018-10-11T11:49:46.097Z,9.75
2018-10-11T11:52:14.284Z,11.70
2018-10-11T11:54:42.341Z,9.83
2018-10-11T11:57:10.511Z,9.93
2018-10-11T11:59:38.776Z,9.68
2018-10-11T12:02:06.977Z,9.60
2018-10-11T12:04:35.138Z,10.30
2018-10-11T12:07:03.312Z,9.35
2018-10-11T12:09:31.399Z,11.03
2018-10-11T12:11:59.578Z,11.35
2018-10-11T12:14:27.660Z,9.55
2018-10-11T12:16:55.775Z,10.78
2018-10-11T12:19:23.844Z,9.78
2018-10-11T12:21:51.923Z,9.95
2018-10-11T12:24:20.008Z,10.28
2018-10-11T12:26:48.087Z,9.85
2018-10-11T12:29:16.182Z,9.83
2018-10-11T12:31:44.283Z,9.85
2018-10-11T12:34:12.362Z,10.53
2018-10-11T12:36:40.458Z,10.80
2018-10-11T12:39:09.269Z,10.63
2018-10-11T12:41:37.367Z,11.68
2018-10-11T12:44:05.888Z,9.03
2018-10-11T12:46:34.751Z,9.35
2018-10-11T12:49:02.115Z,9.45
2018-10-11T12:51:30.267Z,9.05
2018-10-11T12:53:58.362Z,10.60
2018-10-11T12:56:26.544Z,9.43
2018-10-11T12:58:54.640Z,8.68
2018-10-11T13:01:24.067Z,9.53
2018-10-11T13:03:51.036Z,9.40
2018-10-11T13:06:19.148Z,9.93
2018-10-11T13:08:47.326Z,9.08
2018-10-11T13:11:15.424Z,9.28
2018-10-11T13:13:46.955Z,12.18
2018-10-11T13:16:11.771Z,9.70
2018-10-11T13:18:39.879Z,10.05
2018-10-11T13:21:08.004Z,8.83
2018-10-11T13:23:36.127Z,11.22
2018-10-11T13:26:04.413Z,8.90
2018-10-11T13:28:32.505Z,8.50
2018-10-11T13:31:01.379Z,8.48
2018-10-11T13:33:29.511Z,8.50
2018-10-11T13:35:57.680Z,8.60
2018-10-11T13:38:25.800Z,8.30
2018-10-11T13:40:56.896Z,10.15
2018-10-11T13:43:22.016Z,7.65
2018-10-11T13:45:54.561Z,9.43
2018-10-11T13:48:18.276Z,8.38
2018-10-11T13:50:46.448Z,11.43
2018-10-11T13:53:18.366Z,8.85
2018-10-11T13:55:45.272Z,8.53
2018-10-11T13:58:11.408Z,9.50
2018-10-11T14:00:39.525Z,8.33
2018-10-11T14:03:08.024Z,7.75
2018-10-11T14:05:36.349Z,8.05
2018-10-11T14:08:04.452Z,8.08
2018-10-11T14:10:32.623Z,7.85
2018-10-11T14:13:00.749Z,8.43
2018-10-11T14:15:28.915Z,8.00
2018-10-11T14:17:59.968Z,7.65
2018-10-11T14:20:25.781Z,8.35
2018-10-11T14:22:53.912Z,8.05
2018-10-11T14:25:22.044Z,7.83
2018-10-11T14:27:50.129Z,8.40
2018-10-11T14:30:18.248Z,7.83
2018-10-11T14:32:46.447Z,7.72
2018-10-11T14:35:14.545Z,8.55
2018-10-11T14:37:42.648Z,7.75
2018-10-11T14:40:10.872Z,8.20
2018-10-11T14:42:39.040Z,8.23
2018-10-11T14:45:07.196Z,11.35
2018-10-11T14:47:35.293Z,8.63
2018-10-11T14:50:03.472Z,8.15
2018-10-11T14:52:31.629Z,8.23
2018-10-11T14:54:59.720Z,9.13
2018-10-11T14:57:27.876Z,7.70
2018-10-11T14:59:55.957Z,8.70
2018-10-11T15:02:24.104Z,8.70
2018-10-11T15:04:52.290Z,9.58
2018-10-11T15:07:20.398Z,8.35
2018-10-11T15:09:48.512Z,8.53
2018-10-11T15:12:16.609Z,9.15
2018-10-11T15:14:44.714Z,8.83
2018-10-11T15:17:12.853Z,9.25
2018-10-11T15:19:40.966Z,14.20
2018-10-11T15:22:09.106Z,8.33
2018-10-11T15:24:37.211Z,9.95
2018-10-11T15:27:05.328Z,8.08
2018-10-11T15:29:33.460Z,8.20
2018-10-11T15:32:01.520Z,9.18
2018-10-11T15:34:29.619Z,11.33
2018-10-11T15:36:57.699Z,8.23
2018-10-11T15:39:25.788Z,8.75
2018-10-11T15:41:53.992Z,8.60
2018-10-11T15:44:22.165Z,8.53
2018-10-11T15:46:50.321Z,10.10
2018-10-11T15:49:18.420Z,8.43
2018-10-11T15:51:46.699Z,8.08
2018-10-11T15:54:14.804Z,9.18
2018-10-11T15:56:42.948Z,10.15
2018-10-11T15:59:11.063Z,8.38
2018-10-11T16:01:39.185Z,9.78
2018-10-11T16:04:07.380Z,11.80
2018-10-11T16:06:35.552Z,9.38
2018-10-11T16:09:05.727Z,11.15
2018-10-11T16:11:33.745Z,9.35
2018-10-11T16:14:01.840Z,11.95
2018-10-11T16:16:29.978Z,12.63
2018-10-11T16:18:58.168Z,16.30
2018-10-11T16:21:26.284Z,12.45
2018-10-11T16:23:54.959Z,8.98
2018-10-11T16:26:23.068Z,10.20
2018-10-11T16:28:51.240Z,9.23
2018-10-11T16:31:19.568Z,10.13
2018-10-11T16:33:47.764Z,9.28
2018-10-11T16:36:15.875Z,9.80
2018-10-11T16:38:43.975Z,11.28
2018-10-11T16:41:12.102Z,10.30
2018-10-11T16:43:40.197Z,10.35
2018-10-11T16:46:08.320Z,9.90
2018-10-11T16:48:36.527Z,11.93
2018-10-11T16:51:04.908Z,10.32
2018-10-11T16:53:33.029Z,10.08
2018-10-11T16:56:01.141Z,9.68
2018-10-11T16:58:29.271Z,9.90
2018-10-11T17:00:57.387Z,11.33
2018-10-11T17:03:25.492Z,12.15
2018-10-11T17:05:53.628Z,12.03
2018-10-11T17:08:21.768Z,13.48
2018-10-11T17:10:49.890Z,20.80
2018-10-11T17:13:17.986Z,14.63
2018-10-11T17:15:46.150Z,14.78
2018-10-11T17:18:14.453Z,11.80
2018-10-11T17:20:42.570Z,12.80
2018-10-11T17:23:10.792Z,13.70
2018-10-11T17:25:38.977Z,11.65
2018-10-11T17:28:07.145Z,11.18
2018-10-11T17:30:35.265Z,12.58
2018-10-11T17:33:03.487Z,12.20
2018-10-11T17:35:31.600Z,13.40
2018-10-11T17:38:00.429Z,14.07
2018-10-11T17:40:28.556Z,12.15
2018-10-11T17:42:56.653Z,11.33
2018-10-11T17:45:24.900Z,11.40
2018-10-11T17:47:53.063Z,10.80
2018-10-11T17:50:21.286Z,11.10
2018-10-11T17:52:49.400Z,11.70
2018-10-11T17:55:17.586Z,12.80
2018-10-11T17:57:45.704Z,13.25
2018-10-11T18:00:13.941Z,10.38
2018-10-11T18:02:42.227Z,10.65
2018-10-11T18:05:10.465Z,12.25
2018-10-11T18:07:38.684Z,11.80
2018-10-11T18:10:06.905Z,13.98
2018-10-11T18:12:34.989Z,12.37
2018-10-11T18:15:03.205Z,13.50
2018-10-11T18:17:32.018Z,11.30
2018-10-11T18:20:00.150Z,10.82
2018-10-11T18:22:28.319Z,13.98
2018-10-11T18:24:56.486Z,12.10
2018-10-11T18:27:24.604Z,11.73
2018-10-11T18:29:52.748Z,14.20
2018-10-11T18:32:20.901Z,15.75
2018-10-11T18:34:49.052Z,12.50
2018-10-11T18:37:17.320Z,12.80
2018-10-11T18:39:45.540Z,16.02
2018-10-11T18:42:13.656Z,11.60
2018-10-11T18:44:42.427Z,11.83
2018-10-11T18:47:10.545Z,17.15
2018-10-11T18:49:38.721Z,13.62
2018-10-11T18:52:07.013Z,13.65
2018-10-11T18:54:35.180Z,14.07
2018-10-11T18:57:03.412Z,11.97
2018-10-11T18:59:31.514Z,13.70
2018-10-11T19:01:59.685Z,12.70
2018-10-11T19:04:27.847Z,13.03
2018-10-11T19:06:56.076Z,14.50
2018-10-11T19:09:24.205Z,12.88
2018-10-11T19:11:52.330Z,17.05
2018-10-11T19:14:20.466Z,18.20
2018-10-11T19:16:48.577Z,11.33
2018-10-11T19:19:16.936Z,14.53
2018-10-11T19:21:45.107Z,17.73
2018-10-11T19:24:13.440Z,18.82
2018-10-11T19:26:41.547Z,21.42
2018-10-11T19:29:09.640Z,16.00
2018-10-11T19:31:37.779Z,13.03
2018-10-11T19:34:05.908Z,17.65
2018-10-11T19:36:34.307Z,17.30
2018-10-11T19:39:02.860Z,14.10
2018-10-11T19:41:31.127Z,12.43
2018-10-11T19:43:59.320Z,11.90
2018-10-11T19:46:28.093Z,19.70
2018-10-11T19:48:56.709Z,19.45
2018-10-11T19:51:24.805Z,19.57
2018-10-11T19:53:53.621Z,15.00
2018-10-11T19:56:21.749Z,14.07
2018-10-11T19:58:49.938Z,13.10
2018-10-11T20:01:19.177Z,13.40
2018-10-11T20:03:48.456Z,13.90
2018-10-11T20:06:16.643Z,13.40
2018-10-11T20:08:44.715Z,16.25
2018-10-11T20:11:13.085Z,14.35
2018-10-11T20:13:41.231Z,14.05
2018-10-11T20:16:09.364Z,12.60
2018-10-11T20:18:37.898Z,14.18
2018-10-11T20:21:06.333Z,13.85
2018-10-11T20:23:35.012Z,12.93
2018-10-11T20:26:03.294Z,14.68
2018-10-11T20:28:31.332Z,16.55
2018-10-11T20:30:59.566Z,13.53
2018-10-11T20:33:27.705Z,16.55
2018-10-11T20:35:56.292Z,13.93
2018-10-11T20:38:24.396Z,14.83
2018-10-11T20:40:52.511Z,15.83
2018-10-11T20:43:20.707Z,14.33
2018-10-11T20:45:48.797Z,14.65
2018-10-11T20:48:16.924Z,14.63
2018-10-11T20:50:45.039Z,14.58
2018-10-11T20:53:13.240Z,15.40
2018-10-11T20:55:41.341Z,13.30
2018-10-11T20:58:09.621Z,14.90
2018-10-11T21:00:37.769Z,14.93
2018-10-11T21:03:06.226Z,13.98
2018-10-11T21:05:34.362Z,15.65
2018-10-11T21:08:02.451Z,14.63
2018-10-11T21:10:30.575Z,14.15
2018-10-11T21:12:58.700Z,13.90
2018-10-11T21:15:26.867Z,13.55
2018-10-11T21:17:55.002Z,14.07
2018-10-11T21:20:23.247Z,15.55
2018-10-11T21:22:51.296Z,14.70
2018-10-11T21:25:19.403Z,14.93
2018-10-11T21:27:47.729Z,14.85
2018-10-11T21:30:15.892Z,15.23
2018-10-11T21:32:44.001Z,14.43
2018-10-11T21:35:12.096Z,18.57
2018-10-11T21:37:40.227Z,14.95
2018-10-11T21:40:08.356Z,13.15
2018-10-11T21:42:36.581Z,13.18
2018-10-11T21:45:04.688Z,12.82
2018-10-11T21:47:32.808Z,13.93
2018-10-11T21:50:01.733Z,13.93
2018-10-11T21:52:29.928Z,12.95
2018-10-11T21:54:58.012Z,13.43
2018-10-11T21:57:26.133Z,12.50
2018-10-11T21:59:54.308Z,13.28
2018-10-11T22:02:22.417Z,12.93
2018-10-11T22:04:50.508Z,15.48
2018-10-11T22:07:18.641Z,11.85
2018-10-11T22:09:46.792Z,11.88
2018-10-11T22:12:14.897Z,12.58
2018-10-11T22:14:43.114Z,15.15
2018-10-11T22:17:11.228Z,12.30
2018-10-11T22:19:39.375Z,12.35
2018-10-11T22:22:07.491Z,11.93
2018-10-11T22:24:35.577Z,13.85
2018-10-11T22:27:03.727Z,11.90
2018-10-11T22:29:31.816Z,11.12
2018-10-11T22:31:59.929Z,11.20
2018-10-11T22:34:28.024Z,12.15
2018-10-11T22:36:56.164Z,11.93
2018-10-11T22:39:24.293Z,13.78
2018-10-11T22:41:52.456Z,12.98
2018-10-11T22:44:20.642Z,13.48
2018-10-11T22:46:48.739Z,13.88
2018-10-11T22:49:16.940Z,11.80
2018-10-11T22:51:45.050Z,12.88
2018-10-11T22:54:13.207Z,12.18
2018-10-11T22:56:41.313Z,13.32
2018-10-11T22:59:09.477Z,12.55
2018-10-11T23:01:37.609Z,10.98
2018-10-11T23:04:05.736Z,11.95
2018-10-11T23:06:33.900Z,11.75
2018-10-11T23:09:02.069Z,11.33
2018-10-11T23:11:30.256Z,11.08
2018-10-11T23:13:58.410Z,11.05
2018-10-11T23:16:26.491Z,10.78
2018-10-11T23:18:54.661Z,11.22
2018-10-11T23:21:22.741Z,15.13
2018-10-11T23:23:50.852Z,11.95
2018-10-11T23:26:18.975Z,10.20
2018-10-11T23:28:47.120Z,10.30
2018-10-11T23:31:15.230Z,12.10
2018-10-11T23:33:43.300Z,9.98
2018-10-11T23:36:11.501Z,12.18
2018-10-11T23:38:39.819Z,10.35
2018-10-11T23:41:08.303Z,9.83
2018-10-11T23:43:36.396Z,9.65
2018-10-11T23:46:04.647Z,10.75
2018-10-11T23:48:32.748Z,9.25
2018-10-11T23:51:00.825Z,9.63
2018-10-11T23:53:28.913Z,10.93
2018-10-11T23:55:57.143Z,9.55
2018-10-11T23:58:25.248Z,11.40
